TimeEDT,TemperatureF,Dew PointF,Humidity,Sea Level PressureIn,VisibilityMPH,Wind Direction,Wind SpeedMPH,Gust SpeedMPH,PrecipitationIn,Events,Conditions,WindDirDegrees,DateUTC
12:53 AM,71.1,59.0,66,29.96,10.0,NNW,15.0,23.0,N/A,,Partly Cloudy,340,2011-11-05 04:53:00
1:53 AM,70.0,57.9,65,29.95,10.0,NNW,16.1,25.3,N/A,,Scattered Clouds,340,2011-11-05 05:53:00
2:53 AM,70.0,57.0,63,29.95,10.0,North,12.7,21.9,N/A,,Scattered Clouds,360,2011-11-05 06:53:00
3:23 AM,68.0,57.2,68,29.94,10.0,North,16.1,20.7,N/A,,Mostly Cloudy,10,2011-11-05 07:23:00
3:30 AM,68.0,57.2,68,29.94,10.0,NNE,15.0,21.9,N/A,,Scattered Clouds,20,2011-11-05 07:30:00
3:53 AM,68.0,57.9,70,29.94,10.0,North,12.7,21.9,N/A,,Mostly Cloudy,10,2011-11-05 07:53:00
4:53 AM,66.0,55.9,70,29.94,10.0,North,10.4,18.4,N/A,,Scattered Clouds,360,2011-11-05 08:53:00
5:43 AM,64.4,55.4,73,29.95,10.0,North,10.4,-,N/A,,Mostly Cloudy,10,2011-11-05 09:43:00
5:50 AM,64.4,55.4,73,29.95,10.0,NNE,10.4,-,N/A,,Scattered Clouds,20,2011-11-05 09:50:00
5:53 AM,64.9,55.0,70,29.95,10.0,NNE,9.2,-,N/A,,Mostly Cloudy,20,2011-11-05 09:53:00
6:08 AM,64.4,55.4,73,29.95,10.0,North,10.4,-,N/A,,Scattered Clouds,10,2011-11-05 10:08:00
6:20 AM,64.4,55.4,73,29.96,10.0,NNE,12.7,-,N/A,,Mostly Cloudy,30,2011-11-05 10:20:00
6:53 AM,64.9,55.0,70,29.97,10.0,North,11.5,-,N/A,,Scattered Clouds,10,2011-11-05 10:53:00
7:14 AM,64.4,55.4,73,29.98,10.0,North,9.2,-,N/A,,Mostly Cloudy,10,2011-11-05 11:14:00
7:27 AM,64.4,53.6,68,29.98,10.0,NNE,12.7,-,N/A,,Scattered Clouds,30,2011-11-05 11:27:00
7:53 AM,64.4,53.6,68,29.99,10.0,North,12.7,17.3,N/A,,Partly Cloudy,10,2011-11-05 11:53:00
8:53 AM,66.2,55.4,68,30.00,10.0,NNE,9.2,-,N/A,,Partly Cloudy,20,2011-11-05 12:53:00
9:53 AM,69.1,55.0,61,30.00,10.0,NNE,15.0,-,N/A,,Clear,20,2011-11-05 13:53:00
10:53 AM,70.0,55.9,61,30.01,10.0,NNE,11.5,19.6,N/A,,Clear,20,2011-11-05 14:53:00
11:53 AM,71.1,57.0,61,30.01,10.0,NNE,10.4,-,N/A,,Clear,30,2011-11-05 15:53:00
12:53 PM,73.0,57.9,59,29.99,10.0,North,-9999.0,-,N/A,,Clear,0,2011-11-05 16:53:00
1:53 PM,72.0,60.1,66,29.97,10.0,North,12.7,-,N/A,,Clear,10,2011-11-05 17:53:00
2:53 PM,73.4,57.2,57,29.96,10.0,NE,11.5,-,N/A,,Clear,50,2011-11-05 18:53:00
3:53 PM,73.0,57.9,59,29.95,10.0,NE,9.2,-,N/A,,Clear,40,2011-11-05 19:53:00
4:53 PM,73.0,59.0,61,29.95,10.0,NE,10.4,-,N/A,,Clear,40,2011-11-05 20:53:00
5:53 PM,73.0,60.1,64,29.96,10.0,North,8.1,-,N/A,,Clear,10,2011-11-05 21:53:00
6:53 PM,72.0,61.0,68,29.97,10.0,NNE,4.6,-,N/A,,Clear,30,2011-11-05 22:53:00
7:53 PM,71.1,62.1,73,29.98,10.0,Calm,Calm,-,N/A,,Clear,0,2011-11-05 23:53:00
8:53 PM,71.1,64.0,78,30.00,10.0,Calm,Calm,-,N/A,,Clear,0,2011-11-06 00:53:00
9:53 PM,72.0,64.0,76,30.01,10.0,Calm,Calm,-,N/A,,Overcast,0,2011-11-06 01:53:00
10:53 PM,73.9,64.9,73,30.01,10.0,NE,9.2,-,N/A,,Clear,40,2011-11-06 02:53:00
11:53 PM,73.4,66.2,78,30.02,10.0,NNE,12.7,-,N/A,,Clear,30,2011-11-06 03:53:00